Latest Weather Observations for Temora

IDN60801

Issued at 1:13 pm EDT Monday 26 October 2020 (issued every 10 minutes, with the page automatically refreshed every 10 minutes)

About weather observations | Map of weather stations | Latest weather observations for NSW | Other Formats
Station Details ID: 073151 Name: TEMORA AIRPORT Lat: -34.43 Lon: 147.51 Height: 280.5 m
Data from the previous 72 hours. | See also: Recent months at Temora
Date/Time
EDT
Temp
°C
App
Temp
°C
Dew
Point
°C
Rel
Hum
%
Delta-T
°C
Wind Press
QNH
hPa
Press
MSL
hPa
Rain since
9am
mm
Dir  Spd
km/h
Gust
km/h
Spd
kts
Gust
kts
26/01:00pm 12.6 7.8 7.3 70 2.6 ESE 22 32 12 17 1020.0 1019.6 4.0
26/12:30pm 12.8 6.7 8.1 73 2.4 ESE 30 39 16 21 1020.1 1019.7 4.0
26/12:00pm 12.3 6.7 8.6 78 1.9 ESE 28 46 15 25 1020.0 1019.6 4.0
26/11:30am 11.6 7.3 9.3 86 1.2 ESE 22 33 12 18 1020.0 1019.6 4.0
26/11:00am 10.8 7.1 10.0 95 0.4 SE 20 28 11 15 1020.0 1019.6 4.0
26/10:30am 10.2 6.9 9.7 97 0.3 SE 17 20 9 11 1020.0 1019.6 3.6
26/10:00am 10.2 5.8 9.0 92 0.6 ESE 22 33 12 18 1020.0 1019.6 1.2
26/09:30am 10.6 5.6 9.4 92 0.6 ESE 26 44 14 24 1019.4 1018.9 0.4
26/09:00am 10.4 5.7 9.2 92 0.6 ESE 24 35 13 19 1019.2 1018.7 11.2
26/08:30am 10.7 6.4 9.3 91 0.7 ESE 22 30 12 16 1019.0 1018.5 10.2
26/08:00am 10.7 8.3 10.2 97 0.3 SE 13 15 7 8 1018.8 1018.3 9.4
26/07:30am 10.6 6.9 9.4 92 0.6 SE 19 33 10 18 1018.2 1017.8 8.0
26/07:00am 10.8 7.3 8.9 88 1.0 ESE 17 24 9 13 1018.0 1017.6 6.4
26/06:30am 11.1 6.2 8.3 83 1.4 ESE 24 33 13 18 1017.1 1016.7 6.0
26/06:00am 11.3 6.7 8.3 82 1.5 ESE 22 32 12 17 1016.6 1016.1 6.0
26/05:30am 11.6 6.6 7.9 78 1.8 ESE 24 37 13 20 1016.2 1015.7 6.0
26/05:00am 11.5 6.9 8.0 79 1.7 ESE 22 32 12 17 1016.2 1015.7 6.0
26/04:30am 11.4 7.2 8.1 80 1.6 ESE 20 28 11 15 1016.1 1015.6 6.0
26/04:00am 11.2 7.0 8.4 83 1.4 ESE 20 28 11 15 1016.2 1015.7 6.0
26/03:30am 10.8 7.0 9.2 90 0.8 ESE 19 26 10 14 1016.3 1015.8 6.0
26/03:00am 10.6 7.9 8.9 89 0.9 ESE 13 20 7 11 1016.3 1015.8 5.6
26/02:30am 11.0 7.5 8.9 87 1.1 E 17 24 9 13 1016.3 1015.8 4.0
26/02:00am 11.4 7.4 9.1 86 1.2 E 20 33 11 18 1016.5 1016.0 2.4
26/01:30am 11.7 8.0 9.6 87 1.1 ESE 19 26 10 14 1016.7 1016.2 1.2
26/01:00am 12.7 8.6 8.8 77 2.0 ESE 20 32 11 17 1016.8 1016.3 0.0
26/12:30am 13.1 8.2 8.6 74 2.3 E 24 37 13 20 1017.0 1016.6 0.0
26/12:00am 13.2 9.3 8.7 74 2.3 ESE 19 30 10 16 1016.9 1016.5 0.0
 
Date/Time
EDT
Temp
°C
App
Temp
°C
Dew
Point
°C
Rel
Hum
%
Delta-T
°C
Wind Press
QNH
hPa
Press
MSL
hPa
Rain since
9am
mm
Dir  Spd
km/h
Gust
km/h
Spd
kts
Gust
kts
25/11:30pm 13.3 8.8 8.4 72 2.5 ESE 22 33 12 18 1016.9 1016.5 0.0
25/11:00pm 13.3 9.3 8.4 72 2.5 ESE 19 28 10 15 1016.9 1016.5 0.0
25/10:30pm 13.3 9.3 8.4 72 2.5 ESE 19 30 10 16 1017.1 1016.7 0.0
25/10:00pm 13.4 9.3 8.5 72 2.5 E 20 28 11 15 1017.0 1016.6 0.0
25/09:30pm 13.6 9.6 8.2 70 2.7 E 19 26 10 14 1017.0 1016.6 0.0
25/09:00pm 13.9 9.8 8.5 70 2.7 ESE 20 26 11 14 1016.9 1016.5 0.0
25/08:30pm 14.0 10.9 9.0 72 2.6 ESE 15 20 8 11 1016.6 1016.1 0.0
25/08:00pm 14.3 10.0 9.3 72 2.6 ESE 22 33 12 18 1016.2 1015.7 0.0
25/07:30pm 14.7 10.4 9.5 71 2.7 ESE 22 33 12 18 1015.9 1015.4 0.0
25/07:00pm 14.8 11.1 9.4 70 2.8 E 19 26 10 14 1015.4 1014.9 0.0
25/06:30pm 15.3 11.5 9.2 67 3.2 E 19 33 10 18 1015.0 1014.5 0.0
25/06:00pm 15.3 11.9 9.2 67 3.2 ENE 17 22 9 12 1014.6 1014.2 0.0
25/05:30pm 15.4 12.1 9.5 68 3.1 E 17 20 9 11 1014.4 1014.0 0.0
25/05:00pm 15.0 11.3 10.0 72 2.6 E 20 28 11 15 1014.1 1013.7 0.0
25/04:30pm 15.5 10.8 9.4 67 3.2 ESE 24 33 13 18 1013.8 1013.4 0.0
25/04:00pm 15.6 11.7 9.5 67 3.2 ESE 20 33 11 18 1013.4 1012.9 0.0
25/03:30pm 15.9 11.5 9.1 64 3.5 E 22 32 12 17 1013.3 1012.8 0.0
25/03:00pm 16.3 12.1 9.7 65 3.5 ESE 22 32 12 17 1013.4 1012.9 0.0
25/02:30pm 15.8 11.5 9.5 66 3.3 ESE 22 28 12 15 1013.6 1013.1 0.0
25/02:00pm 15.2 12.1 10.4 73 2.6 ESE 17 28 9 15 1013.9 1013.5 0.0
25/01:30pm 14.4 10.8 9.8 74 2.4 SE 19 22 10 12 1013.8 1013.4 0.0
25/01:00pm 14.4 10.8 10.4 77 2.1 SSE 20 24 11 13 1013.7 1013.2 0.0
25/12:30pm 14.1 12.4 12.3 89 1.0 ESE 13 19 7 10 1013.7 1013.2 0.0
25/12:00pm 12.5 11.2 12.5 100 0.0 S 11 15 6 8 1013.9 1013.5 0.0
25/11:30am 11.8 9.8 11.6 99 0.1 SSW 13 15 7 8 1014.1 1013.7 0.0
25/11:00am 11.6 9.4 10.7 94 0.5 SSW 13 17 7 9 1014.0 1013.6 0.0
25/10:30am 10.9 9.0 10.4 97 0.3 SW 11 15 6 8 1013.7 1013.2 0.0
25/10:00am 9.8 7.2 9.5 98 0.2 SSW 13 15 7 8 1013.5 1013.0 0.0
25/09:30am 8.8 5.9 8.2 96 0.3 SSW 13 17 7 9 1013.4 1012.9 0.0
25/09:00am 8.4 5.2 6.9 90 0.7 SSW 13 19 7 10 1013.0 1012.5 10.6
25/08:30am 8.1 4.7 5.7 85 1.1 SSW 13 17 7 9 1013.0 1012.5 10.6
25/08:00am 7.8 4.7 5.4 85 1.1 SSW 11 13 6 7 1012.4 1011.9 10.6
25/07:30am 7.4 3.8 5.0 85 1.1 SW 13 17 7 9 1012.0 1011.5 10.6
25/07:00am 6.8 3.6 5.0 88 0.8 SW 11 15 6 8 1011.7 1011.2 10.6
25/06:30am 7.4 3.8 5.0 85 1.1 SW 13 17 7 9 1011.2 1010.7 10.6
25/06:00am 7.9 5.2 5.5 85 1.1 SW 9 15 5 8 1010.6 1010.1 10.6
25/05:30am 8.2 4.4 5.7 84 1.1 SW 15 26 8 14 1010.1 1009.6 10.6
25/05:00am 8.4 3.9 6.0 85 1.1 SW 19 26 10 14 1009.8 1009.3 10.6
25/04:30am 8.6 5.2 5.9 83 1.2 SW 13 20 7 11 1009.8 1009.3 10.6
25/04:00am 8.9 4.4 6.0 82 1.4 SW 19 24 10 13 1009.4 1008.9 10.6
25/03:30am 9.4 5.4 6.5 82 1.4 SW 17 24 9 13 1009.2 1008.7 10.6
25/03:00am 9.8 5.9 7.2 84 1.3 SW 17 24 9 13 1009.1 1008.6 10.6
25/02:30am 9.9 6.0 7.3 84 1.3 SW 17 26 9 14 1008.7 1008.2 10.6
25/02:00am 9.7 5.8 7.1 84 1.2 SW 17 28 9 15 1008.7 1008.2 10.6
25/01:30am 10.1 6.2 7.3 83 1.4 SW 17 30 9 16 1008.7 1008.2 10.6
25/01:00am 10.8 6.5 7.7 81 1.5 WSW 20 33 11 18 1008.6 1008.1 10.6
25/12:30am 11.5 7.4 8.0 79 1.7 SW 19 28 10 15 1008.6 1008.1 10.6
25/12:00am 11.8 8.2 8.3 79 1.8 WSW 17 22 9 12 1008.7 1008.2 10.6
 
Date/Time
EDT
Temp
°C
App
Temp
°C
Dew
Point
°C
Rel
Hum
%
Delta-T
°C
Wind Press
QNH
hPa
Press
MSL
hPa
Rain since
9am
mm
Dir  Spd
km/h
Gust
km/h
Spd
kts
Gust
kts
24/11:30pm 12.0 8.4 8.5 79 1.8 SW 17 22 9 12 1008.4 1007.9 10.6
24/11:00pm 11.9 8.4 8.6 80 1.7 WSW 17 24 9 13 1008.3 1007.8 10.6
24/10:30pm 11.6 8.1 8.6 82 1.5 WSW 17 24 9 13 1008.2 1007.7 10.6
24/10:00pm 12.2 8.4 9.2 82 1.5 WSW 19 30 10 16 1008.0 1007.5 10.6
24/09:30pm 13.3 9.0 10.7 84 1.4 SW 24 35 13 19 1007.6 1007.0 10.6
24/09:00pm 14.3 10.4 12.2 87 1.2 SW 24 39 13 21 1006.9 1006.4 10.6
24/08:30pm 15.4 12.9 13.4 88 1.1 SW 19 28 10 15 1006.3 1005.8 10.6
24/08:00pm 16.3 13.9 14.5 89 1.0 WSW 20 30 11 16 1005.7 1005.2 10.6
24/07:30pm 16.8 14.3 15.2 90 0.9 SW 22 35 12 19 1005.0 1004.5 10.6
24/07:00pm 17.4 15.5 16.6 95 0.5 SW 22 35 12 19 1004.0 1003.4 10.6
24/06:50pm 17.5 14.5 16.7 95 0.5 SW 28 41 15 22 1003.9 1003.3 10.6
24/06:30pm 17.3 17.3 17.3 100 0.0 SW 13 19 7 10 1003.8 1003.2 10.6
24/06:00pm 17.0 16.2 17.0 100 0.0 SSW 17 24 9 13 1003.1 1002.6 10.6
24/05:30pm 16.9 19.3 16.9 100 0.0 CALM 0 0 0 0 1002.4 1001.9 10.6
24/05:00pm 16.9 18.5 16.9 100 0.0 E 4 6 2 3 1002.6 1002.1 10.4
24/04:30pm 16.9 17.2 16.9 100 0.0 S 11 17 6 9 1002.3 1001.8 10.2
24/04:16pm 17.2 13.2 16.2 94 0.6 WNW 32 54 17 29 1002.1 1001.6 7.4
24/04:15pm 17.3 13.3 16.2 93 0.7 WNW 32 54 17 29 1002.2 1001.7 6.6
24/04:13pm 17.5 13.8 15.1 86 1.4 NW 28 54 15 29 1002.4 1001.9 1.8
24/04:10pm 19.2 17.0 14.9 76 2.5 NNW 20 52 11 28 1001.9 1001.4 0.2
24/04:00pm 21.8 21.5 16.5 72 3.3 NNW 13 17 7 9 1001.3 1000.7 0.2
24/03:30pm 23.5 24.6 17.9 71 3.5 NNW 9 17 5 9 1001.6 1001.1 0.2
24/03:00pm 22.6 22.1 16.9 70 3.5 NNW 15 24 8 13 1002.3 1001.8 0.2
24/02:30pm 22.9 21.4 16.7 68 3.8 NNW 20 26 11 14 1002.8 1002.3 0.2
24/02:00pm 22.3 21.8 17.9 76 2.8 WNW 17 28 9 15 1003.0 1002.5 0.2
24/01:30pm 20.7 21.6 17.5 82 2.0 NW 9 13 5 7 1002.7 1002.2 0.2
24/01:00pm 21.1 18.7 16.3 74 2.9 NW 24 30 13 16 1004.0 1003.4 0.0
24/12:30pm 21.8 19.8 16.5 72 3.3 NW 22 33 12 18 1004.2 1003.6 0.0
24/12:00pm 21.3 20.3 17.5 79 2.4 NNW 19 30 10 16 1004.6 1004.1 0.0
24/11:30am 20.8 19.1 18.0 84 1.8 NNW 24 32 13 17 1004.9 1004.4 0.0
24/11:00am 20.6 19.8 18.0 85 1.6 NNW 19 26 10 14 1004.9 1004.4 0.0
24/10:30am 20.0 19.3 18.3 90 1.1 NNW 19 28 10 15 1005.0 1004.5 0.0
24/10:00am 19.8 20.4 19.5 98 0.2 NNW 15 20 8 11 1005.2 1004.7 0.0
24/09:30am 19.1 19.2 19.1 100 0.0 NNW 17 24 9 13 1005.2 1004.7 0.0
24/09:00am 19.0 16.9 19.0 100 0.0 N 28 37 15 20 1005.0 1004.5 14.8
24/08:30am 19.1 17.5 19.1 100 0.0 N 26 35 14 19 1005.0 1004.5 14.8
24/08:00am 18.6 17.5 18.6 100 0.0 NNE 22 30 12 16 1004.6 1004.1 14.8
24/07:30am 18.2 17.9 18.2 100 0.0 N 17 26 9 14 1004.6 1004.1 14.8
24/07:00am 17.7 17.5 17.7 100 0.0 NNE 15 19 8 10 1004.5 1003.9 14.8
24/06:30am 17.8 17.3 17.8 100 0.0 NNE 17 22 9 12 1004.3 1003.7 14.4
24/06:00am 17.8 17.7 17.8 100 0.0 NNE 15 20 8 11 1004.1 1003.5 14.4
24/05:30am 17.7 17.5 17.7 100 0.0 N 15 19 8 10 1004.3 1003.7 14.4
24/05:00am 17.7 16.8 17.7 100 0.0 NNE 19 24 10 13 1004.1 1003.5 14.4
24/04:30am 17.9 16.5 17.9 100 0.0 NNE 22 28 12 15 1004.3 1003.7 14.4
24/04:00am 17.7 17.5 17.7 100 0.0 NNE 15 20 8 11 1004.6 1004.1 14.4
24/03:30am 17.5 17.3 17.5 100 0.0 NE 15 19 8 10 1005.0 1004.5 14.4
24/03:00am 17.4 17.1 17.4 100 0.0 NE 15 19 8 10 1005.3 1004.8 14.4
24/02:30am 17.5 17.6 17.5 100 0.0 NE 13 17 7 9 1005.5 1005.0 14.4
24/02:00am 17.6 17.8 17.6 100 0.0 NE 13 19 7 10 1005.7 1005.2 14.4
24/01:30am 17.3 16.2 17.3 100 0.0 NE 19 26 10 14 1005.9 1005.4 14.2
24/01:00am 17.2 17.2 17.2 100 0.0 NE 13 17 7 9 1006.9 1006.4 14.2
24/12:30am 17.3 17.0 17.3 100 0.0 NE 15 20 8 11 1007.0 1006.5 13.8
24/12:00am 17.1 18.2 17.1 100 0.0 NNW 7 13 4 7 1007.9 1007.4 12.0
 
Date/Time
EDT
Temp
°C
App
Temp
°C
Dew
Point
°C
Rel
Hum
%
Delta-T
°C
Wind Press
QNH
hPa
Press
MSL
hPa
Rain since
9am
mm
Dir  Spd
km/h
Gust
km/h
Spd
kts
Gust
kts
23/11:30pm 17.3 16.2 17.3 100 0.0 NNW 19 32 10 17 1008.1 1007.6 8.4
23/11:00pm 17.5 17.3 17.5 100 0.0 ENE 15 20 8 11 1006.4 1005.9 7.4
23/10:30pm 17.6 17.4 17.6 100 0.0 ENE 15 20 8 11 1006.7 1006.2 7.4
23/10:00pm 17.4 17.1 17.4 100 0.0 ENE 15 19 8 10 1006.5 1006.0 7.4
23/09:30pm 17.6 16.6 17.6 100 0.0 E 19 26 10 14 1006.4 1005.9 7.4
23/09:00pm 17.7 18.3 17.7 100 0.0 ENE 11 15 6 8 1008.1 1007.6 5.6
23/08:30pm 17.7 17.3 17.1 96 0.4 NNW 15 20 8 11 1009.1 1008.6 3.2
23/08:00pm 18.8 19.1 16.0 84 1.7 ENE 9 17 5 9 1007.5 1006.9 0.4
23/07:30pm 19.1 17.6 16.3 84 1.7 NE 19 26 10 14 1007.4 1006.8 0.4
23/07:00pm 20.1 20.4 15.1 73 3.0 SE 7 11 4 6 1007.0 1006.5 0.4
23/06:30pm 20.2 19.2 14.6 70 3.3 SSW 13 17 7 9 1006.7 1006.2 0.4
23/06:00pm 20.1 18.9 15.1 73 3.0 SW 15 24 8 13 1007.1 1006.6 0.4
23/05:30pm 19.3 17.3 15.4 78 2.3 W 20 32 11 17 1008.3 1007.8 0.4
23/05:04pm 22.0 15.4 13.6 59 4.9 W 41 59 22 32 1008.3 1007.8 0.0
23/05:00pm 22.4 15.3 13.5 57 5.2 W 43 59 23 32 1007.8 1007.3 0.0
23/04:46pm 25.4 21.2 12.3 44 7.6 NNW 26 63 14 34 1007.2 1006.7 0.0
23/04:30pm 27.9 23.2 10.6 34 9.9 N 26 37 14 20 1006.6 1006.1 0.0
23/04:00pm 28.5 23.0 10.7 33 10.3 N 30 39 16 21 1006.6 1006.1 0.0
23/03:30pm 29.2 23.8 10.8 32 10.6 N 30 41 16 22 1006.7 1006.2 0.0
23/03:00pm 29.0 23.8 11.6 34 10.2 N 30 41 16 22 1007.2 1006.7 0.0
23/02:30pm 28.5 23.7 11.6 35 9.9 N 28 39 15 21 1008.0 1007.5 0.0
23/02:00pm 28.7 24.2 12.6 37 9.6 N 28 41 15 22 1008.6 1008.1 0.0
23/01:30pm 28.9 24.8 12.8 37 9.6 N 26 41 14 22 1009.1 1008.6 0.0

Other formats

Comma delimited format used in spreadsheet applications
http://www.bom.gov.au/fwo/IDN60801/IDN60801.95722.axf

JavaScript Object Notation format (JSON) in row-major order
http://www.bom.gov.au/fwo/IDN60801/IDN60801.95722.json

Data quality

Most of these data are generated automatically and are frequently updated. Quality checks on data are not normally performed. It is possible for incorrect values to appear. Refer to information at About Latest Weather Observations and please check the disclaimer before using these data.